sensor_id;sensor_type;location;lat;lon;timestamp;temperature;humidity
10543;DHT22;5320;50.046;10.314;2022-08-04T00:02:26;23.20;99.90
10543;DHT22;5320;50.046;10.314;2022-08-04T00:05:02;23.40;1.00
10543;DHT22;5320;50.046;10.314;2022-08-04T00:07:47;23.00;1.00
10543;DHT22;5320;50.046;10.314;2022-08-04T00:10:17;22.60;1.00
10543;DHT22;5320;50.046;10.314;2022-08-04T00:12:47;22.60;1.00
10543;DHT22;5320;50.046;10.314;2022-08-04T00:15:15;22.80;1.00
10543;DHT22;5320;50.046;10.314;2022-08-04T00:17:48;23.00;1.00
10543;DHT22;5320;50.046;10.314;2022-08-04T00:20:19;23.10;1.00
10543;DHT22;5320;50.046;10.314;2022-08-04T00:22:47;23.20;1.00
10543;DHT22;5320;50.046;10.314;2022-08-04T00:25:13;23.30;82.20
10543;DHT22;5320;50.046;10.314;2022-08-04T00:27:39;23.30;99.90
10543;DHT22;5320;50.046;10.314;2022-08-04T00:30:06;23.40;1.00
10543;DHT22;5320;50.046;10.314;2022-08-04T00:32:32;23.40;1.00
10543;DHT22;5320;50.046;10.314;2022-08-04T00:34:59;23.50;1.00
10543;DHT22;5320;50.046;10.314;2022-08-04T00:37:25;23.60;1.00
10543;DHT22;5320;50.046;10.314;2022-08-04T00:39:56;23.60;1.00
10543;DHT22;5320;50.046;10.314;2022-08-04T00:42:47;23.60;99.90
10543;DHT22;5320;50.046;10.314;2022-08-04T00:53:22;23.70;99.90
10543;DHT22;5320;50.046;10.314;2022-08-04T00:58:51;23.70;99.90
10543;DHT22;5320;50.046;10.314;2022-08-04T01:02:05;23.70;99.90
10543;DHT22;5320;50.046;10.314;2022-08-04T01:05:02;23.70;1.00
10543;DHT22;5320;50.046;10.314;2022-08-04T01:16:02;23.70;33.30
10543;DHT22;5320;50.046;10.314;2022-08-04T01:32:38;23.50;33.60
10543;DHT22;5320;50.046;10.314;2022-08-04T01:35:22;23.50;1.00
10543;DHT22;5320;50.046;10.314;2022-08-04T01:40:56;23.50;3.20
10543;DHT22;5320;50.046;10.314;2022-08-04T01:43:22;23.50;1.00
10543;DHT22;5320;50.046;10.314;2022-08-04T01:45:50;23.50;1.00
10543;DHT22;5320;50.046;10.314;2022-08-04T01:48:23;23.40;1.00
10543;DHT22;5320;50.046;10.314;2022-08-04T01:50:53;23.50;1.00
10543;DHT22;5320;50.046;10.314;2022-08-04T01:53:23;23.40;1.00
10543;DHT22;5320;50.046;10.314;2022-08-04T01:55:55;23.40;1.00
10543;DHT22;5320;50.046;10.314;2022-08-04T01:58:23;23.40;1.00
10543;DHT22;5320;50.046;10.314;2022-08-04T02:00:59;23.40;1.00
10543;DHT22;5320;50.046;10.314;2022-08-04T02:03:31;23.30;1.00
10543;DHT22;5320;50.046;10.314;2022-08-04T02:06:17;23.40;48.80
10543;DHT22;5320;50.046;10.314;2022-08-04T02:09:11;23.50;1.00
10543;DHT22;5320;50.046;10.314;2022-08-04T02:11:40;23.40;1.00
10543;DHT22;5320;50.046;10.314;2022-08-04T02:16:59;23.40;43.00
10543;DHT22;5320;50.046;10.314;2022-08-04T02:19:32;23.30;99.90
10543;DHT22;5320;50.046;10.314;2022-08-04T02:22:08;23.20;99.90
10543;DHT22;5320;50.046;10.314;2022-08-04T02:24:45;23.20;99.90
10543;DHT22;5320;50.046;10.314;2022-08-04T02:27:14;23.20;99.90
10543;DHT22;5320;50.046;10.314;2022-08-04T02:30:03;23.20;99.90
10543;DHT22;5320;50.046;10.314;2022-08-04T02:32:32;23.20;99.90
10543;DHT22;5320;50.046;10.314;2022-08-04T02:35:10;23.20;99.90
10543;DHT22;5320;50.046;10.314;2022-08-04T02:37:47;23.10;99.90
10543;DHT22;5320;50.046;10.314;2022-08-04T02:40:19;23.10;99.90
10543;DHT22;5320;50.046;10.314;2022-08-04T02:42:45;23.00;99.90
10543;DHT22;5320;50.046;10.314;2022-08-04T02:45:11;23.00;99.90
10543;DHT22;5320;50.046;10.314;2022-08-04T02:47:38;23.00;99.90
10543;DHT22;5320;50.046;10.314;2022-08-04T02:50:04;23.00;99.90
10543;DHT22;5320;50.046;10.314;2022-08-04T02:52:33;23.00;99.90
10543;DHT22;5320;50.046;10.314;2022-08-04T02:55:00;23.00;99.90
10543;DHT22;5320;50.046;10.314;2022-08-04T02:57:29;22.90;99.90
10543;DHT22;5320;50.046;10.314;2022-08-04T03:00:04;22.90;99.90
10543;DHT22;5320;50.046;10.314;2022-08-04T03:05:37;22.80;99.90
10543;DHT22;5320;50.046;10.314;2022-08-04T03:22:40;22.60;1.00
10543;DHT22;5320;50.046;10.314;2022-08-04T03:30:36;22.30;1.00
10543;DHT22;5320;50.046;10.314;2022-08-04T03:46:40;22.30;99.90
10543;DHT22;5320;50.046;10.314;2022-08-04T03:49:53;22.20;99.90
10543;DHT22;5320;50.046;10.314;2022-08-04T03:52:54;22.20;99.90
10543;DHT22;5320;50.046;10.314;2022-08-04T03:56:05;22.20;1.00
10543;DHT22;5320;50.046;10.314;2022-08-04T03:58:51;22.20;1.00
10543;DHT22;5320;50.046;10.314;2022-08-04T04:17:51;22.20;1.00
10543;DHT22;5320;50.046;10.314;2022-08-04T04:20:57;22.30;1.00
10543;DHT22;5320;50.046;10.314;2022-08-04T04:26:36;22.30;1.00
10543;DHT22;5320;50.046;10.314;2022-08-04T04:32:22;22.30;1.00
10543;DHT22;5320;50.046;10.314;2022-08-04T04:38:14;22.00;1.00
10543;DHT22;5320;50.046;10.314;2022-08-04T04:41:04;22.00;1.00
10543;DHT22;5320;50.046;10.314;2022-08-04T04:44:10;22.00;1.00
10543;DHT22;5320;50.046;10.314;2022-08-04T04:49:53;22.20;1.00
10543;DHT22;5320;50.046;10.314;2022-08-04T04:52:29;22.20;1.00
10543;DHT22;5320;50.046;10.314;2022-08-04T04:55:11;22.20;1.00
10543;DHT22;5320;50.046;10.314;2022-08-04T04:57:44;22.30;1.00
10543;DHT22;5320;50.046;10.314;2022-08-04T05:00:11;22.50;1.00
10543;DHT22;5320;50.046;10.314;2022-08-04T05:03:20;22.70;59.70
10543;DHT22;5320;50.046;10.314;2022-08-04T05:09:11;22.80;18.80
10543;DHT22;5320;50.046;10.314;2022-08-04T05:14:28;22.90;1.00
10543;DHT22;5320;50.046;10.314;2022-08-04T05:17:02;23.00;1.00
10543;DHT22;5320;50.046;10.314;2022-08-04T05:22:05;23.20;99.90
10543;DHT22;5320;50.046;10.314;2022-08-04T05:24:38;23.20;1.00
10543;DHT22;5320;50.046;10.314;2022-08-04T05:27:19;23.30;1.00
10543;DHT22;5320;50.046;10.314;2022-08-04T05:29:59;23.40;1.00
10543;DHT22;5320;50.046;10.314;2022-08-04T05:32:31;23.50;1.00
10543;DHT22;5320;50.046;10.314;2022-08-04T05:35:04;23.10;1.00
10543;DHT22;5320;50.046;10.314;2022-08-04T05:37:34;23.00;99.90
10543;DHT22;5320;50.046;10.314;2022-08-04T05:40:04;23.20;1.00
10543;DHT22;5320;50.046;10.314;2022-08-04T05:42:36;23.40;99.90
10543;DHT22;5320;50.046;10.314;2022-08-04T05:45:03;22.90;1.00
10543;DHT22;5320;50.046;10.314;2022-08-04T05:47:32;22.70;1.00
10543;DHT22;5320;50.046;10.314;2022-08-04T05:49:59;22.60;99.90
10543;DHT22;5320;50.046;10.314;2022-08-04T05:52:26;22.70;99.90
10543;DHT22;5320;50.046;10.314;2022-08-04T05:54:53;22.60;99.90
10543;DHT22;5320;50.046;10.314;2022-08-04T05:57:20;22.80;99.90
10543;DHT22;5320;50.046;10.314;2022-08-04T05:59:48;23.00;1.00
10543;DHT22;5320;50.046;10.314;2022-08-04T06:02:17;23.30;1.00
10543;DHT22;5320;50.046;10.314;2022-08-04T06:04:49;23.40;1.00
10543;DHT22;5320;50.046;10.314;2022-08-04T06:07:15;23.60;1.00
10543;DHT22;5320;50.046;10.314;2022-08-04T06:09:42;23.70;99.90
10543;DHT22;5320;50.046;10.314;2022-08-04T06:12:12;23.70;1.00
10543;DHT22;5320;50.046;10.314;2022-08-04T06:14:43;23.70;99.90
10543;DHT22;5320;50.046;10.314;2022-08-04T06:17:19;23.80;99.90
10543;DHT22;5320;50.046;10.314;2022-08-04T06:19:48;23.80;1.00
10543;DHT22;5320;50.046;10.314;2022-08-04T06:22:15;23.70;1.00
10543;DHT22;5320;50.046;10.314;2022-08-04T06:24:42;23.50;99.90
10543;DHT22;5320;50.046;10.314;2022-08-04T06:27:10;23.60;5.30
10543;DHT22;5320;50.046;10.314;2022-08-04T06:29:37;23.80;1.00
10543;DHT22;5320;50.046;10.314;2022-08-04T06:32:06;24.00;1.00
10543;DHT22;5320;50.046;10.314;2022-08-04T06:35:00;24.20;1.00
10543;DHT22;5320;50.046;10.314;2022-08-04T06:37:26;24.30;1.00
10543;DHT22;5320;50.046;10.314;2022-08-04T06:39:53;24.40;1.00
10543;DHT22;5320;50.046;10.314;2022-08-04T06:42:23;24.40;1.00
10543;DHT22;5320;50.046;10.314;2022-08-04T06:44:51;24.30;1.00
10543;DHT22;5320;50.046;10.314;2022-08-04T06:47:18;24.40;1.00
10543;DHT22;5320;50.046;10.314;2022-08-04T06:49:48;24.50;1.00
10543;DHT22;5320;50.046;10.314;2022-08-04T06:52:16;24.60;99.90
10543;DHT22;5320;50.046;10.314;2022-08-04T06:54:47;24.70;99.90
10543;DHT22;5320;50.046;10.314;2022-08-04T06:57:14;24.80;99.90
10543;DHT22;5320;50.046;10.314;2022-08-04T06:59:43;24.90;99.90
10543;DHT22;5320;50.046;10.314;2022-08-04T07:02:14;25.00;88.90
10543;DHT22;5320;50.046;10.314;2022-08-04T07:04:43;25.10;1.00
10543;DHT22;5320;50.046;10.314;2022-08-04T07:07:11;25.30;1.00
10543;DHT22;5320;50.046;10.314;2022-08-04T07:09:38;25.50;1.00
10543;DHT22;5320;50.046;10.314;2022-08-04T07:12:05;25.80;99.90
10543;DHT22;5320;50.046;10.314;2022-08-04T07:14:31;26.00;99.90
10543;DHT22;5320;50.046;10.314;2022-08-04T07:17:05;26.30;99.90
10543;DHT22;5320;50.046;10.314;2022-08-04T07:19:34;26.60;1.00
10543;DHT22;5320;50.046;10.314;2022-08-04T07:22:00;26.90;1.00
10543;DHT22;5320;50.046;10.314;2022-08-04T07:24:31;27.00;1.00
10543;DHT22;5320;50.046;10.314;2022-08-04T07:26:58;27.20;1.00
10543;DHT22;5320;50.046;10.314;2022-08-04T07:29:24;27.30;1.00
10543;DHT22;5320;50.046;10.314;2022-08-04T07:31:51;27.50;1.00
10543;DHT22;5320;50.046;10.314;2022-08-04T07:34:18;27.70;1.00
10543;DHT22;5320;50.046;10.314;2022-08-04T07:36:45;27.70;1.00
10543;DHT22;5320;50.046;10.314;2022-08-04T07:39:12;27.90;1.00
10543;DHT22;5320;50.046;10.314;2022-08-04T07:41:40;28.00;1.00
10543;DHT22;5320;50.046;10.314;2022-08-04T07:44:07;28.20;1.00
10543;DHT22;5320;50.046;10.314;2022-08-04T07:46:35;28.30;1.00
10543;DHT22;5320;50.046;10.314;2022-08-04T07:49:01;28.40;1.00
10543;DHT22;5320;50.046;10.314;2022-08-04T07:51:31;28.60;1.00
10543;DHT22;5320;50.046;10.314;2022-08-04T07:53:58;28.60;1.00
10543;DHT22;5320;50.046;10.314;2022-08-04T07:56:25;28.70;1.00
10543;DHT22;5320;50.046;10.314;2022-08-04T07:58:52;28.70;1.00
10543;DHT22;5320;50.046;10.314;2022-08-04T08:01:18;28.80;1.00
10543;DHT22;5320;50.046;10.314;2022-08-04T08:03:45;29.00;1.00
10543;DHT22;5320;50.046;10.314;2022-08-04T08:06:11;29.00;1.00
10543;DHT22;5320;50.046;10.314;2022-08-04T08:08:38;29.10;1.00
10543;DHT22;5320;50.046;10.314;2022-08-04T08:11:08;29.30;1.00
10543;DHT22;5320;50.046;10.314;2022-08-04T08:13:36;29.30;1.00
10543;DHT22;5320;50.046;10.314;2022-08-04T08:16:03;29.50;99.90
10543;DHT22;5320;50.046;10.314;2022-08-04T08:18:30;29.70;99.90
10543;DHT22;5320;50.046;10.314;2022-08-04T08:20:57;29.80;99.90
10543;DHT22;5320;50.046;10.314;2022-08-04T08:23:24;29.70;99.90
10543;DHT22;5320;50.046;10.314;2022-08-04T08:25:50;29.80;99.90
10543;DHT22;5320;50.046;10.314;2022-08-04T08:28:17;29.90;99.90
10543;DHT22;5320;50.046;10.314;2022-08-04T08:30:42;29.90;99.90
10543;DHT22;5320;50.046;10.314;2022-08-04T08:33:11;30.10;99.90
10543;DHT22;5320;50.046;10.314;2022-08-04T08:38:08;30.20;99.90
10543;DHT22;5320;50.046;10.314;2022-08-04T08:40:54;30.20;99.90
10543;DHT22;5320;50.046;10.314;2022-08-04T08:46:14;30.70;99.90
10543;DHT22;5320;50.046;10.314;2022-08-04T08:52:15;31.10;99.90
10543;DHT22;5320;50.046;10.314;2022-08-04T09:00:36;31.70;99.90
10543;DHT22;5320;50.046;10.314;2022-08-04T09:06:26;31.90;99.90
10543;DHT22;5320;50.046;10.314;2022-08-04T09:09:14;31.90;99.90
10543;DHT22;5320;50.046;10.314;2022-08-04T09:14:51;32.30;99.90
10543;DHT22;5320;50.046;10.314;2022-08-04T09:17:40;32.60;99.90
10543;DHT22;5320;50.046;10.314;2022-08-04T09:23:48;33.00;99.90
10543;DHT22;5320;50.046;10.314;2022-08-04T09:28:55;33.00;99.90
10543;DHT22;5320;50.046;10.314;2022-08-04T09:31:35;33.10;99.90
10543;DHT22;5320;50.046;10.314;2022-08-04T09:34:10;33.30;99.90
10543;DHT22;5320;50.046;10.314;2022-08-04T09:36:56;33.10;99.90
10543;DHT22;5320;50.046;10.314;2022-08-04T09:39:36;33.20;99.90
10543;DHT22;5320;50.046;10.314;2022-08-04T09:50:43;34.70;44.00
10543;DHT22;5320;50.046;10.314;2022-08-04T09:55:57;34.90;17.60
10543;DHT22;5320;50.046;10.314;2022-08-04T09:58:49;35.10;6.30
10543;DHT22;5320;50.046;10.314;2022-08-04T10:01:23;34.80;1.00
10543;DHT22;5320;50.046;10.314;2022-08-04T10:03:55;34.40;1.00
10543;DHT22;5320;50.046;10.314;2022-08-04T10:06:47;34.70;1.00
10543;DHT22;5320;50.046;10.314;2022-08-04T10:09:46;34.40;1.00
10543;DHT22;5320;50.046;10.314;2022-08-04T10:15:06;33.80;1.00
10543;DHT22;5320;50.046;10.314;2022-08-04T10:23:26;33.80;1.00
10543;DHT22;5320;50.046;10.314;2022-08-04T10:26:04;34.20;1.00
10543;DHT22;5320;50.046;10.314;2022-08-04T10:28:36;34.60;1.00
10543;DHT22;5320;50.046;10.314;2022-08-04T10:31:07;34.50;1.00
10543;DHT22;5320;50.046;10.314;2022-08-04T10:33:57;34.70;1.00
10543;DHT22;5320;50.046;10.314;2022-08-04T10:36:27;34.90;1.00
10543;DHT22;5320;50.046;10.314;2022-08-04T10:39:12;34.90;1.00
10543;DHT22;5320;50.046;10.314;2022-08-04T10:41:51;35.00;1.00
10543;DHT22;5320;50.046;10.314;2022-08-04T10:44:37;35.40;1.00
10543;DHT22;5320;50.046;10.314;2022-08-04T10:47:13;35.80;1.00
10543;DHT22;5320;50.046;10.314;2022-08-04T10:49:54;35.80;1.00
10543;DHT22;5320;50.046;10.314;2022-08-04T10:52:28;35.50;1.00
10543;DHT22;5320;50.046;10.314;2022-08-04T10:54:57;35.60;1.00
10543;DHT22;5320;50.046;10.314;2022-08-04T10:57:39;35.50;1.00
10543;DHT22;5320;50.046;10.314;2022-08-04T11:00:11;36.10;1.00
10543;DHT22;5320;50.046;10.314;2022-08-04T11:05:35;36.00;1.00
10543;DHT22;5320;50.046;10.314;2022-08-04T11:08:24;35.60;1.00
10543;DHT22;5320;50.046;10.314;2022-08-04T11:16:43;36.50;1.00
10543;DHT22;5320;50.046;10.314;2022-08-04T11:19:34;37.30;1.00
10543;DHT22;5320;50.046;10.314;2022-08-04T11:22:08;36.90;1.00
10543;DHT22;5320;50.046;10.314;2022-08-04T11:24:44;36.40;1.00
10543;DHT22;5320;50.046;10.314;2022-08-04T11:27:43;36.30;1.00
10543;DHT22;5320;50.046;10.314;2022-08-04T11:30:14;35.90;1.00
10543;DHT22;5320;50.046;10.314;2022-08-04T11:35:36;36.30;1.00
10543;DHT22;5320;50.046;10.314;2022-08-04T11:38:27;36.20;1.00
10543;DHT22;5320;50.046;10.314;2022-08-04T11:41:03;36.10;1.00
10543;DHT22;5320;50.046;10.314;2022-08-04T11:43:48;36.50;1.00
10543;DHT22;5320;50.046;10.314;2022-08-04T11:46:22;36.70;1.00
10543;DHT22;5320;50.046;10.314;2022-08-04T11:49:01;36.60;1.00
10543;DHT22;5320;50.046;10.314;2022-08-04T11:51:29;36.80;1.00
10543;DHT22;5320;50.046;10.314;2022-08-04T11:53:55;36.60;1.00
10543;DHT22;5320;50.046;10.314;2022-08-04T11:56:21;36.50;1.00
10543;DHT22;5320;50.046;10.314;2022-08-04T11:58:47;36.40;1.00
10543;DHT22;5320;50.046;10.314;2022-08-04T12:01:46;36.60;1.00
10543;DHT22;5320;50.046;10.314;2022-08-04T12:07:20;37.40;1.00
10543;DHT22;5320;50.046;10.314;2022-08-04T12:10:11;37.10;1.00
10543;DHT22;5320;50.046;10.314;2022-08-04T12:13:00;37.10;1.00
10543;DHT22;5320;50.046;10.314;2022-08-04T12:15:44;37.30;1.00
10543;DHT22;5320;50.046;10.314;2022-08-04T12:18:29;37.20;1.00
10543;DHT22;5320;50.046;10.314;2022-08-04T12:21:05;37.40;1.00
10543;DHT22;5320;50.046;10.314;2022-08-04T12:23:38;37.90;1.00
10543;DHT22;5320;50.046;10.314;2022-08-04T12:26:07;37.50;1.00
10543;DHT22;5320;50.046;10.314;2022-08-04T12:28:36;37.80;1.00
10543;DHT22;5320;50.046;10.314;2022-08-04T12:31:20;37.70;1.00
10543;DHT22;5320;50.046;10.314;2022-08-04T12:33:55;37.20;1.00
10543;DHT22;5320;50.046;10.314;2022-08-04T12:36:32;36.80;1.00
10543;DHT22;5320;50.046;10.314;2022-08-04T12:39:20;36.90;1.00
10543;DHT22;5320;50.046;10.314;2022-08-04T12:41:56;36.50;1.00
10543;DHT22;5320;50.046;10.314;2022-08-04T12:44:24;36.70;1.00
10543;DHT22;5320;50.046;10.314;2022-08-04T12:46:56;37.50;1.00
10543;DHT22;5320;50.046;10.314;2022-08-04T12:49:24;37.70;1.00
10543;DHT22;5320;50.046;10.314;2022-08-04T12:51:51;37.60;1.00
10543;DHT22;5320;50.046;10.314;2022-08-04T12:54:24;38.10;1.00
10543;DHT22;5320;50.046;10.314;2022-08-04T12:56:52;38.10;1.00
10543;DHT22;5320;50.046;10.314;2022-08-04T12:59:18;38.10;1.00
10543;DHT22;5320;50.046;10.314;2022-08-04T13:01:48;38.40;1.00
10543;DHT22;5320;50.046;10.314;2022-08-04T13:04:18;38.20;1.00
10543;DHT22;5320;50.046;10.314;2022-08-04T13:06:59;38.50;1.00
10543;DHT22;5320;50.046;10.314;2022-08-04T13:09:28;38.90;1.00
10543;DHT22;5320;50.046;10.314;2022-08-04T13:11:59;38.60;1.00
10543;DHT22;5320;50.046;10.314;2022-08-04T13:14:35;38.70;1.00
10543;DHT22;5320;50.046;10.314;2022-08-04T13:17:03;38.60;1.00
10543;DHT22;5320;50.046;10.314;2022-08-04T13:19:31;38.30;1.00
10543;DHT22;5320;50.046;10.314;2022-08-04T13:21:57;38.50;1.00
10543;DHT22;5320;50.046;10.314;2022-08-04T13:24:25;39.00;1.00
10543;DHT22;5320;50.046;10.314;2022-08-04T13:26:55;39.10;1.00
10543;DHT22;5320;50.046;10.314;2022-08-04T13:29:23;38.20;1.00
10543;DHT22;5320;50.046;10.314;2022-08-04T13:31:50;38.70;1.00
10543;DHT22;5320;50.046;10.314;2022-08-04T13:34:18;39.00;1.00
10543;DHT22;5320;50.046;10.314;2022-08-04T13:36:45;39.40;1.00
10543;DHT22;5320;50.046;10.314;2022-08-04T13:39:15;38.90;1.00
10543;DHT22;5320;50.046;10.314;2022-08-04T13:41:50;38.30;1.00
10543;DHT22;5320;50.046;10.314;2022-08-04T13:44:23;38.10;1.00
10543;DHT22;5320;50.046;10.314;2022-08-04T13:46:54;38.30;1.00
10543;DHT22;5320;50.046;10.314;2022-08-04T13:49:21;38.00;1.00
10543;DHT22;5320;50.046;10.314;2022-08-04T13:52:01;37.70;1.00
10543;DHT22;5320;50.046;10.314;2022-08-04T13:54:40;38.40;1.00
10543;DHT22;5320;50.046;10.314;2022-08-04T13:57:16;38.60;1.00
10543;DHT22;5320;50.046;10.314;2022-08-04T13:59:48;38.50;1.00
10543;DHT22;5320;50.046;10.314;2022-08-04T14:02:29;38.50;1.00
10543;DHT22;5320;50.046;10.314;2022-08-04T14:05:13;38.70;1.00
10543;DHT22;5320;50.046;10.314;2022-08-04T14:07:44;38.80;1.00
10543;DHT22;5320;50.046;10.314;2022-08-04T14:10:11;38.70;1.00
10543;DHT22;5320;50.046;10.314;2022-08-04T14:12:50;38.50;1.00
10543;DHT22;5320;50.046;10.314;2022-08-04T14:18:19;38.40;1.00
10543;DHT22;5320;50.046;10.314;2022-08-04T14:23:49;38.20;1.00
10543;DHT22;5320;50.046;10.314;2022-08-04T14:28:43;38.30;1.00
10543;DHT22;5320;50.046;10.314;2022-08-04T14:31:11;38.20;1.00
10543;DHT22;5320;50.046;10.314;2022-08-04T14:33:41;38.20;1.00
10543;DHT22;5320;50.046;10.314;2022-08-04T14:36:09;38.70;1.00
10543;DHT22;5320;50.046;10.314;2022-08-04T14:41:13;38.90;1.00
10543;DHT22;5320;50.046;10.314;2022-08-04T14:43:44;38.60;1.00
10543;DHT22;5320;50.046;10.314;2022-08-04T14:46:11;39.00;1.00
10543;DHT22;5320;50.046;10.314;2022-08-04T14:48:38;38.70;1.00
10543;DHT22;5320;50.046;10.314;2022-08-04T14:51:11;38.30;1.00
10543;DHT22;5320;50.046;10.314;2022-08-04T14:53:39;38.60;1.00
10543;DHT22;5320;50.046;10.314;2022-08-04T14:56:05;39.30;1.00
10543;DHT22;5320;50.046;10.314;2022-08-04T14:58:33;40.10;1.00
10543;DHT22;5320;50.046;10.314;2022-08-04T15:01:00;40.20;1.00
10543;DHT22;5320;50.046;10.314;2022-08-04T15:03:27;39.30;1.00
10543;DHT22;5320;50.046;10.314;2022-08-04T15:05:55;39.00;1.00
10543;DHT22;5320;50.046;10.314;2022-08-04T15:08:22;39.30;1.00
10543;DHT22;5320;50.046;10.314;2022-08-04T15:10:48;39.10;1.00
10543;DHT22;5320;50.046;10.314;2022-08-04T15:13:14;39.10;1.00
10543;DHT22;5320;50.046;10.314;2022-08-04T15:15:42;38.80;1.00
10543;DHT22;5320;50.046;10.314;2022-08-04T15:18:09;38.50;1.00
10543;DHT22;5320;50.046;10.314;2022-08-04T15:20:36;38.20;1.00
10543;DHT22;5320;50.046;10.314;2022-08-04T15:23:06;38.20;1.00
10543;DHT22;5320;50.046;10.314;2022-08-04T15:25:38;38.40;1.00
10543;DHT22;5320;50.046;10.314;2022-08-04T15:28:04;38.30;1.00
10543;DHT22;5320;50.046;10.314;2022-08-04T15:30:32;38.50;1.00
10543;DHT22;5320;50.046;10.314;2022-08-04T15:33:00;38.40;1.00
10543;DHT22;5320;50.046;10.314;2022-08-04T15:35:28;38.30;1.00
10543;DHT22;5320;50.046;10.314;2022-08-04T15:43:17;37.70;1.00
10543;DHT22;5320;50.046;10.314;2022-08-04T15:45:51;38.00;1.00
10543;DHT22;5320;50.046;10.314;2022-08-04T15:53:26;37.90;1.00
10543;DHT22;5320;50.046;10.314;2022-08-04T15:55:53;38.00;1.00
10543;DHT22;5320;50.046;10.314;2022-08-04T15:58:21;38.00;1.00
10543;DHT22;5320;50.046;10.314;2022-08-04T16:19:24;37.70;1.00
10543;DHT22;5320;50.046;10.314;2022-08-04T16:21:58;37.60;1.00
10543;DHT22;5320;50.046;10.314;2022-08-04T16:24:37;37.50;1.00
10543;DHT22;5320;50.046;10.314;2022-08-04T16:27:13;37.10;1.00
10543;DHT22;5320;50.046;10.314;2022-08-04T16:29:42;37.20;1.00
10543;DHT22;5320;50.046;10.314;2022-08-04T16:35:00;37.50;1.00
10543;DHT22;5320;50.046;10.314;2022-08-04T16:37:36;37.50;1.00
10543;DHT22;5320;50.046;10.314;2022-08-04T16:40:34;37.70;1.00
10543;DHT22;5320;50.046;10.314;2022-08-04T16:45:40;37.50;1.00
10543;DHT22;5320;50.046;10.314;2022-08-04T16:48:08;37.60;1.00
10543;DHT22;5320;50.046;10.314;2022-08-04T16:51:10;37.60;1.00
10543;DHT22;5320;50.046;10.314;2022-08-04T16:53:41;37.30;1.00
10543;DHT22;5320;50.046;10.314;2022-08-04T16:56:11;37.50;1.00
10543;DHT22;5320;50.046;10.314;2022-08-04T16:58:39;37.70;1.00
10543;DHT22;5320;50.046;10.314;2022-08-04T17:01:15;37.80;1.00
10543;DHT22;5320;50.046;10.314;2022-08-04T17:03:49;37.80;1.00
10543;DHT22;5320;50.046;10.314;2022-08-04T17:06:16;37.70;1.00
10543;DHT22;5320;50.046;10.314;2022-08-04T17:08:47;37.30;1.00
10543;DHT22;5320;50.046;10.314;2022-08-04T17:11:14;37.20;1.00
10543;DHT22;5320;50.046;10.314;2022-08-04T17:13:43;37.00;1.00
10543;DHT22;5320;50.046;10.314;2022-08-04T17:16:15;37.00;1.00
10543;DHT22;5320;50.046;10.314;2022-08-04T17:18:48;37.00;1.00
10543;DHT22;5320;50.046;10.314;2022-08-04T17:21:30;36.90;1.00
10543;DHT22;5320;50.046;10.314;2022-08-04T17:23:59;37.00;1.00
10543;DHT22;5320;50.046;10.314;2022-08-04T17:26:27;36.70;1.00
10543;DHT22;5320;50.046;10.314;2022-08-04T17:28:54;36.50;1.00
10543;DHT22;5320;50.046;10.314;2022-08-04T17:31:22;36.30;1.00
10543;DHT22;5320;50.046;10.314;2022-08-04T17:33:53;36.40;1.00
10543;DHT22;5320;50.046;10.314;2022-08-04T17:36:24;36.50;1.00
10543;DHT22;5320;50.046;10.314;2022-08-04T17:38:53;36.50;1.00
10543;DHT22;5320;50.046;10.314;2022-08-04T17:41:21;36.50;1.00
10543;DHT22;5320;50.046;10.314;2022-08-04T17:43:56;36.50;1.00
10543;DHT22;5320;50.046;10.314;2022-08-04T17:46:34;36.50;1.00
10543;DHT22;5320;50.046;10.314;2022-08-04T17:51:45;36.60;1.00
10543;DHT22;5320;50.046;10.314;2022-08-04T17:54:16;36.50;1.00
10543;DHT22;5320;50.046;10.314;2022-08-04T17:56:47;36.40;1.00
10543;DHT22;5320;50.046;10.314;2022-08-04T17:59:20;36.30;1.00
10543;DHT22;5320;50.046;10.314;2022-08-04T18:01:57;36.20;1.00
10543;DHT22;5320;50.046;10.314;2022-08-04T18:04:34;36.00;1.00
10543;DHT22;5320;50.046;10.314;2022-08-04T18:09:30;35.90;1.00
10543;DHT22;5320;50.046;10.314;2022-08-04T18:12:02;35.80;1.00
10543;DHT22;5320;50.046;10.314;2022-08-04T18:14:43;35.80;1.00
10543;DHT22;5320;50.046;10.314;2022-08-04T18:17:11;35.70;1.00
10543;DHT22;5320;50.046;10.314;2022-08-04T18:19:38;35.60;1.00
10543;DHT22;5320;50.046;10.314;2022-08-04T18:22:14;35.50;1.00
10543;DHT22;5320;50.046;10.314;2022-08-04T18:24:40;35.50;1.00
10543;DHT22;5320;50.046;10.314;2022-08-04T18:27:05;35.40;1.00
10543;DHT22;5320;50.046;10.314;2022-08-04T18:29:35;35.20;1.00
10543;DHT22;5320;50.046;10.314;2022-08-04T18:32:01;35.00;1.00
10543;DHT22;5320;50.046;10.314;2022-08-04T18:34:27;34.80;1.00
10543;DHT22;5320;50.046;10.314;2022-08-04T18:36:53;34.60;1.00
10543;DHT22;5320;50.046;10.314;2022-08-04T18:39:19;34.40;1.00
10543;DHT22;5320;50.046;10.314;2022-08-04T18:41:49;34.20;1.00
10543;DHT22;5320;50.046;10.314;2022-08-04T18:44:15;34.10;1.00
10543;DHT22;5320;50.046;10.314;2022-08-04T18:46:41;33.90;1.00
10543;DHT22;5320;50.046;10.314;2022-08-04T18:49:07;33.70;1.00
10543;DHT22;5320;50.046;10.314;2022-08-04T18:51:35;33.60;1.00
10543;DHT22;5320;50.046;10.314;2022-08-04T18:54:03;33.40;1.00
10543;DHT22;5320;50.046;10.314;2022-08-04T18:56:30;33.30;1.00
10543;DHT22;5320;50.046;10.314;2022-08-04T18:58:56;33.10;1.00
10543;DHT22;5320;50.046;10.314;2022-08-04T19:01:22;32.90;1.00
10543;DHT22;5320;50.046;10.314;2022-08-04T19:03:48;32.80;1.00
10543;DHT22;5320;50.046;10.314;2022-08-04T19:06:14;32.70;1.00
10543;DHT22;5320;50.046;10.314;2022-08-04T19:08:40;32.60;1.00
10543;DHT22;5320;50.046;10.314;2022-08-04T19:11:06;32.50;1.00
10543;DHT22;5320;50.046;10.314;2022-08-04T19:13:33;32.40;1.00
10543;DHT22;5320;50.046;10.314;2022-08-04T19:15:58;32.30;1.00
10543;DHT22;5320;50.046;10.314;2022-08-04T19:18:24;32.20;1.00
10543;DHT22;5320;50.046;10.314;2022-08-04T19:20:51;32.20;1.00
10543;DHT22;5320;50.046;10.314;2022-08-04T19:23:16;32.10;1.00
10543;DHT22;5320;50.046;10.314;2022-08-04T19:25:43;31.90;1.00
10543;DHT22;5320;50.046;10.314;2022-08-04T19:28:09;31.70;1.00
10543;DHT22;5320;50.046;10.314;2022-08-04T19:30:35;31.60;1.00
10543;DHT22;5320;50.046;10.314;2022-08-04T19:33:01;31.50;1.00
10543;DHT22;5320;50.046;10.314;2022-08-04T19:35:26;31.30;1.00
10543;DHT22;5320;50.046;10.314;2022-08-04T19:37:52;31.20;1.00
10543;DHT22;5320;50.046;10.314;2022-08-04T19:40:18;31.10;1.00
10543;DHT22;5320;50.046;10.314;2022-08-04T19:42:44;30.90;1.00
10543;DHT22;5320;50.046;10.314;2022-08-04T19:45:10;30.80;1.00
10543;DHT22;5320;50.046;10.314;2022-08-04T19:47:36;30.50;1.00
10543;DHT22;5320;50.046;10.314;2022-08-04T19:50:04;30.50;1.00
10543;DHT22;5320;50.046;10.314;2022-08-04T19:52:30;30.40;1.00
10543;DHT22;5320;50.046;10.314;2022-08-04T19:54:57;30.30;1.00
10543;DHT22;5320;50.046;10.314;2022-08-04T19:57:23;30.10;1.00
10543;DHT22;5320;50.046;10.314;2022-08-04T19:59:48;30.00;1.00
10543;DHT22;5320;50.046;10.314;2022-08-04T20:02:14;30.00;1.00